sensor_id;sensor_type;location;lat;lon;timestamp;temperature;humidity
57030;DHT22;42920;45.306;20.448;2023-07-08T00:00:12;589.10;2124.80
57030;DHT22;42920;45.306;20.448;2023-07-08T00:02:40;589.00;2124.80
57030;DHT22;42920;45.306;20.448;2023-07-08T00:05:11;589.00;2124.80
57030;DHT22;42920;45.306;20.448;2023-07-08T00:07:37;589.00;2124.80
57030;DHT22;42920;45.306;20.448;2023-07-08T00:10:30;589.00;2124.80
57030;DHT22;42920;45.306;20.448;2023-07-08T00:12:57;588.90;2176.00
57030;DHT22;42920;45.306;20.448;2023-07-08T00:15:28;588.80;2176.00
57030;DHT22;42920;45.306;20.448;2023-07-08T00:17:54;588.80;2201.60
57030;DHT22;42920;45.306;20.448;2023-07-08T00:20:33;588.80;2227.20
57030;DHT22;42920;45.306;20.448;2023-07-08T00:23:00;564.10;2252.80
57030;DHT22;42920;45.306;20.448;2023-07-08T00:25:27;564.10;2278.40
57030;DHT22;42920;45.306;20.448;2023-07-08T00:27:53;564.10;2304.00
57030;DHT22;42920;45.306;20.448;2023-07-08T00:30:23;564.10;2329.60
57030;DHT22;42920;45.306;20.448;2023-07-08T00:32:49;564.10;2329.60
57030;DHT22;42920;45.306;20.448;2023-07-08T00:37:51;563.90;2380.80
57030;DHT22;42920;45.306;20.448;2023-07-08T00:40:26;564.00;2355.20
57030;DHT22;42920;45.306;20.448;2023-07-08T00:42:53;563.90;2380.80
57030;DHT22;42920;45.306;20.448;2023-07-08T00:45:40;563.90;2406.40
57030;DHT22;42920;45.306;20.448;2023-07-08T00:48:23;563.90;2406.40
57030;DHT22;42920;45.306;20.448;2023-07-08T00:50:50;563.90;2432.00
57030;DHT22;42920;45.306;20.448;2023-07-08T00:53:22;563.90;2432.00
57030;DHT22;42920;45.306;20.448;2023-07-08T00:55:50;563.90;2406.40
57030;DHT22;42920;45.306;20.448;2023-07-08T00:58:19;563.80;2432.00
57030;DHT22;42920;45.306;20.448;2023-07-08T01:00:46;563.80;2432.00
57030;DHT22;42920;45.306;20.448;2023-07-08T01:03:12;563.90;2432.00
57030;DHT22;42920;45.306;20.448;2023-07-08T01:05:38;563.90;2406.40
57030;DHT22;42920;45.306;20.448;2023-07-08T01:11:02;563.60;2432.00
57030;DHT22;42920;45.306;20.448;2023-07-08T01:13:37;563.40;2432.00
57030;DHT22;42920;45.306;20.448;2023-07-08T01:16:05;563.30;2432.00
57030;DHT22;42920;45.306;20.448;2023-07-08T01:18:32;563.20;2432.00
57030;DHT22;42920;45.306;20.448;2023-07-08T01:23:51;563.20;2432.00
57030;DHT22;42920;45.306;20.448;2023-07-08T01:26:17;538.50;2406.40
57030;DHT22;42920;45.306;20.448;2023-07-08T01:28:43;563.20;2432.00
57030;DHT22;42920;45.306;20.448;2023-07-08T01:31:09;563.30;2432.00
57030;DHT22;42920;45.306;20.448;2023-07-08T01:33:34;563.20;2432.00
57030;DHT22;42920;45.306;20.448;2023-07-08T01:36:00;563.30;2432.00
57030;DHT22;42920;45.306;20.448;2023-07-08T01:38:27;563.40;2432.00
57030;DHT22;42920;45.306;20.448;2023-07-08T01:40:56;563.40;2432.00
57030;DHT22;42920;45.306;20.448;2023-07-08T01:43:22;563.40;2432.00
57030;DHT22;42920;45.306;20.448;2023-07-08T01:45:48;563.40;2432.00
57030;DHT22;42920;45.306;20.448;2023-07-08T01:48:18;563.60;2432.00
57030;DHT22;42920;45.306;20.448;2023-07-08T01:50:56;563.50;2432.00
57030;DHT22;42920;45.306;20.448;2023-07-08T01:53:34;563.50;2432.00
57030;DHT22;42920;45.306;20.448;2023-07-08T01:56:00;563.40;2432.00
57030;DHT22;42920;45.306;20.448;2023-07-08T01:58:26;563.20;2432.00
57030;DHT22;42920;45.306;20.448;2023-07-08T02:00:53;538.50;2406.40
57030;DHT22;42920;45.306;20.448;2023-07-08T02:03:20;563.20;2432.00
57030;DHT22;42920;45.306;20.448;2023-07-08T02:05:45;538.50;2406.40
57030;DHT22;42920;45.306;20.448;2023-07-08T02:08:11;538.20;2406.40
57030;DHT22;42920;45.306;20.448;2023-07-08T02:10:38;538.00;2406.40
57030;DHT22;42920;45.306;20.448;2023-07-08T02:13:04;538.00;2406.40
57030;DHT22;42920;45.306;20.448;2023-07-08T02:15:30;538.20;2406.40
57030;DHT22;42920;45.306;20.448;2023-07-08T02:17:56;538.20;2406.40
57030;DHT22;42920;45.306;20.448;2023-07-08T02:20:22;538.30;2406.40
57030;DHT22;42920;45.306;20.448;2023-07-08T02:22:48;538.20;2406.40
57030;DHT22;42920;45.306;20.448;2023-07-08T02:25:14;538.20;2406.40
57030;DHT22;42920;45.306;20.448;2023-07-08T02:27:40;538.00;2406.40
57030;DHT22;42920;45.306;20.448;2023-07-08T02:30:06;538.00;2406.40
57030;DHT22;42920;45.306;20.448;2023-07-08T02:32:32;538.00;2406.40
57030;DHT22;42920;45.306;20.448;2023-07-08T02:35:01;538.00;2406.40
57030;DHT22;42920;45.306;20.448;2023-07-08T02:37:29;538.00;2406.40
57030;DHT22;42920;45.306;20.448;2023-07-08T02:39:55;538.00;2406.40
57030;DHT22;42920;45.306;20.448;2023-07-08T02:42:21;538.00;2406.40
57030;DHT22;42920;45.306;20.448;2023-07-08T02:44:47;538.00;2406.40
57030;DHT22;42920;45.306;20.448;2023-07-08T02:47:12;538.00;2406.40
57030;DHT22;42920;45.306;20.448;2023-07-08T02:49:38;538.00;2406.40
57030;DHT22;42920;45.306;20.448;2023-07-08T02:52:04;538.00;2406.40
57030;DHT22;42920;45.306;20.448;2023-07-08T02:54:30;538.00;2406.40
57030;DHT22;42920;45.306;20.448;2023-07-08T02:56:55;538.00;2406.40
57030;DHT22;42920;45.306;20.448;2023-07-08T02:59:21;537.90;2406.40
57030;DHT22;42920;45.306;20.448;2023-07-08T03:01:47;538.00;2406.40
57030;DHT22;42920;45.306;20.448;2023-07-08T03:04:13;538.10;2406.40
57030;DHT22;42920;45.306;20.448;2023-07-08T03:06:43;538.00;2406.40
57030;DHT22;42920;45.306;20.448;2023-07-08T03:09:10;537.90;2406.40
57030;DHT22;42920;45.306;20.448;2023-07-08T03:11:38;537.80;2406.40
57030;DHT22;42920;45.306;20.448;2023-07-08T03:14:05;537.90;2406.40
57030;DHT22;42920;45.306;20.448;2023-07-08T03:16:30;538.00;2406.40
57030;DHT22;42920;45.306;20.448;2023-07-08T03:18:56;537.90;2406.40
57030;DHT22;42920;45.306;20.448;2023-07-08T03:21:22;537.80;2406.40
57030;DHT22;42920;45.306;20.448;2023-07-08T03:23:49;538.00;2406.40
57030;DHT22;42920;45.306;20.448;2023-07-08T03:26:17;538.10;2406.40
57030;DHT22;42920;45.306;20.448;2023-07-08T03:28:44;538.00;2406.40
57030;DHT22;42920;45.306;20.448;2023-07-08T03:31:10;538.00;2406.40
57030;DHT22;42920;45.306;20.448;2023-07-08T03:33:36;538.20;2406.40
57030;DHT22;42920;45.306;20.448;2023-07-08T03:36:04;538.20;2406.40
57030;DHT22;42920;45.306;20.448;2023-07-08T03:38:30;538.00;2406.40
57030;DHT22;42920;45.306;20.448;2023-07-08T03:40:55;538.00;2406.40
57030;DHT22;42920;45.306;20.448;2023-07-08T03:43:21;538.00;2406.40
57030;DHT22;42920;45.306;20.448;2023-07-08T03:45:47;537.90;2406.40
57030;DHT22;42920;45.306;20.448;2023-07-08T03:48:13;538.00;2406.40
57030;DHT22;42920;45.306;20.448;2023-07-08T03:50:39;537.90;2406.40
57030;DHT22;42920;45.306;20.448;2023-07-08T03:53:05;537.70;2406.40
57030;DHT22;42920;45.306;20.448;2023-07-08T03:55:30;537.80;2406.40
57030;DHT22;42920;45.306;20.448;2023-07-08T03:57:56;537.90;2406.40
57030;DHT22;42920;45.306;20.448;2023-07-08T04:00:22;537.80;2406.40
57030;DHT22;42920;45.306;20.448;2023-07-08T04:02:48;537.90;2406.40
57030;DHT22;42920;45.306;20.448;2023-07-08T04:05:18;538.00;2406.40
57030;DHT22;42920;45.306;20.448;2023-07-08T04:07:45;538.00;2406.40
57030;DHT22;42920;45.306;20.448;2023-07-08T04:10:11;538.00;2406.40
57030;DHT22;42920;45.306;20.448;2023-07-08T04:12:37;538.00;2406.40
57030;DHT22;42920;45.306;20.448;2023-07-08T04:15:04;538.00;2406.40
57030;DHT22;42920;45.306;20.448;2023-07-08T04:17:30;538.10;2406.40
57030;DHT22;42920;45.306;20.448;2023-07-08T04:19:55;538.20;2406.40
57030;DHT22;42920;45.306;20.448;2023-07-08T04:22:26;538.20;2406.40
57030;DHT22;42920;45.306;20.448;2023-07-08T04:24:52;538.20;2406.40
57030;DHT22;42920;45.306;20.448;2023-07-08T04:27:18;538.20;2406.40
57030;DHT22;42920;45.306;20.448;2023-07-08T04:29:44;538.30;2406.40
57030;DHT22;42920;45.306;20.448;2023-07-08T04:32:10;538.30;2406.40
57030;DHT22;42920;45.306;20.448;2023-07-08T04:34:35;538.30;2406.40
57030;DHT22;42920;45.306;20.448;2023-07-08T04:37:01;538.20;2406.40
57030;DHT22;42920;45.306;20.448;2023-07-08T04:39:30;538.30;2406.40
57030;DHT22;42920;45.306;20.448;2023-07-08T04:41:56;538.40;2406.40
57030;DHT22;42920;45.306;20.448;2023-07-08T04:44:22;538.50;2406.40
57030;DHT22;42920;45.306;20.448;2023-07-08T04:46:57;538.50;2406.40
57030;DHT22;42920;45.306;20.448;2023-07-08T04:49:24;538.50;2406.40
57030;DHT22;42920;45.306;20.448;2023-07-08T04:51:53;538.50;2406.40
57030;DHT22;42920;45.306;20.448;2023-07-08T04:54:19;538.50;2406.40
57030;DHT22;42920;45.306;20.448;2023-07-08T04:56:47;563.20;2432.00
57030;DHT22;42920;45.306;20.448;2023-07-08T04:59:17;538.50;2406.40
57030;DHT22;42920;45.306;20.448;2023-07-08T05:01:43;563.40;2432.00
57030;DHT22;42920;45.306;20.448;2023-07-08T05:04:13;563.50;2432.00
57030;DHT22;42920;45.306;20.448;2023-07-08T05:06:39;563.50;2432.00
57030;DHT22;42920;45.306;20.448;2023-07-08T05:09:05;563.40;2432.00
57030;DHT22;42920;45.306;20.448;2023-07-08T05:11:31;563.50;2432.00
57030;DHT22;42920;45.306;20.448;2023-07-08T05:13:58;563.60;2432.00
57030;DHT22;42920;45.306;20.448;2023-07-08T05:16:24;563.50;2432.00
57030;DHT22;42920;45.306;20.448;2023-07-08T05:18:49;563.60;2432.00
57030;DHT22;42920;45.306;20.448;2023-07-08T05:21:15;563.60;2432.00
57030;DHT22;42920;45.306;20.448;2023-07-08T05:23:42;563.60;2432.00
57030;DHT22;42920;45.306;20.448;2023-07-08T05:26:10;563.60;2432.00
57030;DHT22;42920;45.306;20.448;2023-07-08T05:28:36;563.70;2432.00
57030;DHT22;42920;45.306;20.448;2023-07-08T05:31:02;563.80;2432.00
57030;DHT22;42920;45.306;20.448;2023-07-08T05:33:29;563.90;2432.00
57030;DHT22;42920;45.306;20.448;2023-07-08T05:35:55;563.80;2432.00
57030;DHT22;42920;45.306;20.448;2023-07-08T05:38:22;563.90;2432.00
57030;DHT22;42920;45.306;20.448;2023-07-08T05:40:53;563.90;2432.00
57030;DHT22;42920;45.306;20.448;2023-07-08T05:43:20;564.00;2432.00
57030;DHT22;42920;45.306;20.448;2023-07-08T05:45:46;564.00;2432.00
57030;DHT22;42920;45.306;20.448;2023-07-08T05:48:13;564.10;2432.00
57030;DHT22;42920;45.306;20.448;2023-07-08T05:50:39;564.10;2432.00
57030;DHT22;42920;45.306;20.448;2023-07-08T05:53:05;588.80;2432.00
57030;DHT22;42920;45.306;20.448;2023-07-08T05:55:32;588.90;2432.00
57030;DHT22;42920;45.306;20.448;2023-07-08T05:57:58;589.00;2432.00
57030;DHT22;42920;45.306;20.448;2023-07-08T06:00:23;589.00;2432.00
57030;DHT22;42920;45.306;20.448;2023-07-08T06:02:49;589.00;2432.00
57030;DHT22;42920;45.306;20.448;2023-07-08T06:05:15;589.10;2432.00
57030;DHT22;42920;45.306;20.448;2023-07-08T06:07:40;589.20;2432.00
57030;DHT22;42920;45.306;20.448;2023-07-08T06:10:07;589.30;2406.40
57030;DHT22;42920;45.306;20.448;2023-07-08T06:12:33;589.40;2380.80
57030;DHT22;42920;45.306;20.448;2023-07-08T06:14:58;589.50;2406.40
57030;DHT22;42920;45.306;20.448;2023-07-08T06:17:24;589.60;2304.00
57030;DHT22;42920;45.306;20.448;2023-07-08T06:19:50;589.70;2278.40
57030;DHT22;42920;45.306;20.448;2023-07-08T06:22:16;589.70;2252.80
57030;DHT22;42920;45.306;20.448;2023-07-08T06:24:41;614.40;2278.40
57030;DHT22;42920;45.306;20.448;2023-07-08T06:27:07;614.50;2252.80
57030;DHT22;42920;45.306;20.448;2023-07-08T06:29:34;614.60;2252.80
57030;DHT22;42920;45.306;20.448;2023-07-08T06:32:00;614.70;2176.00
57030;DHT22;42920;45.306;20.448;2023-07-08T06:34:26;614.80;2201.60
57030;DHT22;42920;45.306;20.448;2023-07-08T06:36:52;614.80;2176.00
57030;DHT22;42920;45.306;20.448;2023-07-08T06:39:18;614.90;2150.40
57030;DHT22;42920;45.306;20.448;2023-07-08T06:41:44;615.00;2124.80
57030;DHT22;42920;45.306;20.448;2023-07-08T06:44:10;615.10;2022.40
57030;DHT22;42920;45.306;20.448;2023-07-08T06:46:36;615.20;2073.60
57030;DHT22;42920;45.306;20.448;2023-07-08T06:49:01;615.30;2073.60
57030;DHT22;42920;45.306;20.448;2023-07-08T06:51:27;615.30;2073.60
57030;DHT22;42920;45.306;20.448;2023-07-08T06:53:53;640.00;2048.00
57030;DHT22;42920;45.306;20.448;2023-07-08T06:56:19;640.00;1971.20
57030;DHT22;42920;45.306;20.448;2023-07-08T06:58:45;640.20;1971.20
57030;DHT22;42920;45.306;20.448;2023-07-08T07:01:11;640.40;1971.20
57030;DHT22;42920;45.306;20.448;2023-07-08T07:03:37;640.50;1945.60
57030;DHT22;42920;45.306;20.448;2023-07-08T07:06:03;640.60;1920.00
57030;DHT22;42920;45.306;20.448;2023-07-08T07:08:29;640.70;1920.00
57030;DHT22;42920;45.306;20.448;2023-07-08T07:10:54;640.80;1920.00
57030;DHT22;42920;45.306;20.448;2023-07-08T07:13:20;640.90;1817.60
57030;DHT22;42920;45.306;20.448;2023-07-08T07:15:48;665.60;1868.80
57030;DHT22;42920;45.306;20.448;2023-07-08T07:18:14;665.60;1843.20
57030;DHT22;42920;45.306;20.448;2023-07-08T07:20:48;665.90;1843.20
57030;DHT22;42920;45.306;20.448;2023-07-08T07:23:14;666.00;1792.00
57030;DHT22;42920;45.306;20.448;2023-07-08T07:25:40;666.00;1766.40
57030;DHT22;42920;45.306;20.448;2023-07-08T07:28:06;666.20;1740.80
57030;DHT22;42920;45.306;20.448;2023-07-08T07:30:32;666.20;1740.80
57030;DHT22;42920;45.306;20.448;2023-07-08T07:33:01;666.20;1664.00
57030;DHT22;42920;45.306;20.448;2023-07-08T07:35:27;666.30;1689.60
57030;DHT22;42920;45.306;20.448;2023-07-08T07:37:53;666.40;1638.40
57030;DHT22;42920;45.306;20.448;2023-07-08T07:40:18;666.50;1664.00
57030;DHT22;42920;45.306;20.448;2023-07-08T07:42:45;691.30;1612.80
57030;DHT22;42920;45.306;20.448;2023-07-08T07:45:12;691.40;1587.20
57030;DHT22;42920;45.306;20.448;2023-07-08T07:47:38;691.40;1612.80
57030;DHT22;42920;45.306;20.448;2023-07-08T07:50:06;691.40;1612.80
57030;DHT22;42920;45.306;20.448;2023-07-08T07:52:32;691.50;1612.80
57030;DHT22;42920;45.306;20.448;2023-07-08T07:54:58;691.70;1638.40
57030;DHT22;42920;45.306;20.448;2023-07-08T07:57:25;691.80;1561.60
57030;DHT22;42920;45.306;20.448;2023-07-08T07:59:50;691.80;1510.40
57030;DHT22;42920;45.306;20.448;2023-07-08T08:02:17;691.80;1484.80
57030;DHT22;42920;45.306;20.448;2023-07-08T08:04:43;691.80;1510.40
57030;DHT22;42920;45.306;20.448;2023-07-08T08:07:08;692.10;1510.40
57030;DHT22;42920;45.306;20.448;2023-07-08T08:09:35;692.10;1510.40
57030;DHT22;42920;45.306;20.448;2023-07-08T08:12:06;716.80;1510.40
57030;DHT22;42920;45.306;20.448;2023-07-08T08:14:33;716.80;1484.80
57030;DHT22;42920;45.306;20.448;2023-07-08T08:16:58;716.80;1484.80
57030;DHT22;42920;45.306;20.448;2023-07-08T08:19:24;716.90;1484.80
57030;DHT22;42920;45.306;20.448;2023-07-08T08:21:50;717.00;1484.80
57030;DHT22;42920;45.306;20.448;2023-07-08T08:24:15;717.10;1484.80
57030;DHT22;42920;45.306;20.448;2023-07-08T08:26:41;717.00;1484.80
57030;DHT22;42920;45.306;20.448;2023-07-08T08:29:06;717.00;1433.60
57030;DHT22;42920;45.306;20.448;2023-07-08T08:31:32;717.00;1408.00
57030;DHT22;42920;45.306;20.448;2023-07-08T08:33:58;717.00;1382.40
57030;DHT22;42920;45.306;20.448;2023-07-08T08:36:24;717.00;1408.00
57030;DHT22;42920;45.306;20.448;2023-07-08T08:38:49;717.10;1433.60
57030;DHT22;42920;45.306;20.448;2023-07-08T08:41:18;717.10;1433.60
57030;DHT22;42920;45.306;20.448;2023-07-08T08:43:46;717.10;1408.00
57030;DHT22;42920;45.306;20.448;2023-07-08T08:48:59;717.10;1382.40
57030;DHT22;42920;45.306;20.448;2023-07-08T08:51:28;717.20;1408.00
57030;DHT22;42920;45.306;20.448;2023-07-08T08:53:57;717.20;1356.80
57030;DHT22;42920;45.306;20.448;2023-07-08T09:05:06;717.40;1356.80
57030;DHT22;42920;45.306;20.448;2023-07-08T09:10:51;717.40;1382.40
57030;DHT22;42920;45.306;20.448;2023-07-08T09:13:30;717.60;1382.40
57030;DHT22;42920;45.306;20.448;2023-07-08T09:16:20;717.70;1382.40
57030;DHT22;42920;45.306;20.448;2023-07-08T09:19:13;717.70;1356.80
57030;DHT22;42920;45.306;20.448;2023-07-08T09:27:00;742.40;1356.80
57030;DHT22;42920;45.306;20.448;2023-07-08T09:29:27;742.50;1382.40
57030;DHT22;42920;45.306;20.448;2023-07-08T09:31:53;742.50;1356.80
57030;DHT22;42920;45.306;20.448;2023-07-08T09:34:22;742.60;1356.80
57030;DHT22;42920;45.306;20.448;2023-07-08T09:36:50;742.80;1356.80
57030;DHT22;42920;45.306;20.448;2023-07-08T09:39:18;742.80;1331.20
57030;DHT22;42920;45.306;20.448;2023-07-08T09:41:46;742.90;1331.20
57030;DHT22;42920;45.306;20.448;2023-07-08T09:44:17;743.00;1331.20
57030;DHT22;42920;45.306;20.448;2023-07-08T09:46:44;743.10;1305.60
57030;DHT22;42920;45.306;20.448;2023-07-08T09:51:53;743.10;1254.40
57030;DHT22;42920;45.306;20.448;2023-07-08T09:54:23;743.20;1254.40
57030;DHT22;42920;45.306;20.448;2023-07-08T09:57:02;768.00;1254.40
57030;DHT22;42920;45.306;20.448;2023-07-08T09:59:31;768.10;1254.40
57030;DHT22;42920;45.306;20.448;2023-07-08T10:02:02;768.10;1254.40
57030;DHT22;42920;45.306;20.448;2023-07-08T10:04:29;768.40;1228.80
57030;DHT22;42920;45.306;20.448;2023-07-08T10:06:55;768.60;1228.80
57030;DHT22;42920;45.306;20.448;2023-07-08T10:09:24;768.60;1203.20
57030;DHT22;42920;45.306;20.448;2023-07-08T10:12:00;768.80;1254.40
57030;DHT22;42920;45.306;20.448;2023-07-08T10:14:37;793.70;1228.80
57030;DHT22;42920;45.306;20.448;2023-07-08T10:17:05;793.70;1203.20
57030;DHT22;42920;45.306;20.448;2023-07-08T10:19:30;793.80;1203.20
57030;DHT22;42920;45.306;20.448;2023-07-08T10:22:22;794.10;1203.20
57030;DHT22;42920;45.306;20.448;2023-07-08T10:25:28;794.00;1177.60
57030;DHT22;42920;45.306;20.448;2023-07-08T10:28:21;794.10;1152.00
57030;DHT22;42920;45.306;20.448;2023-07-08T10:36:40;794.10;1152.00
57030;DHT22;42920;45.306;20.448;2023-07-08T10:45:20;794.30;1100.80
57030;DHT22;42920;45.306;20.448;2023-07-08T10:56:35;794.40;1100.80
57030;DHT22;42920;45.306;20.448;2023-07-08T10:59:50;794.50;1100.80
57030;DHT22;42920;45.306;20.448;2023-07-08T11:08:22;819.60;1100.80
57030;DHT22;42920;45.306;20.448;2023-07-08T11:11:06;819.50;1100.80
57030;DHT22;42920;45.306;20.448;2023-07-08T11:13:37;819.60;1049.60
57030;DHT22;42920;45.306;20.448;2023-07-08T11:16:26;819.80;1075.20
57030;DHT22;42920;45.306;20.448;2023-07-08T11:19:19;819.80;1075.20
57030;DHT22;42920;45.306;20.448;2023-07-08T11:21:53;819.60;1075.20
57030;DHT22;42920;45.306;20.448;2023-07-08T11:32:36;820.00;1049.60
57030;DHT22;42920;45.306;20.448;2023-07-08T11:35:06;819.90;1024.00
57030;DHT22;42920;45.306;20.448;2023-07-08T11:37:34;820.00;998.40
57030;DHT22;42920;45.306;20.448;2023-07-08T11:40:35;819.80;1024.00
57030;DHT22;42920;45.306;20.448;2023-07-08T11:43:01;820.10;1024.00
57030;DHT22;42920;45.306;20.448;2023-07-08T11:48:25;844.90;1024.00
57030;DHT22;42920;45.306;20.448;2023-07-08T11:50:51;844.90;1075.20
57030;DHT22;42920;45.306;20.448;2023-07-08T11:56:03;844.90;1024.00
57030;DHT22;42920;45.306;20.448;2023-07-08T11:58:33;820.10;972.80
57030;DHT22;42920;45.306;20.448;2023-07-08T12:01:51;845.10;1024.00
57030;DHT22;42920;45.306;20.448;2023-07-08T12:07:16;845.30;1024.00
57030;DHT22;42920;45.306;20.448;2023-07-08T12:09:44;845.10;1024.00
57030;DHT22;42920;45.306;20.448;2023-07-08T12:12:27;845.20;1024.00
57030;DHT22;42920;45.306;20.448;2023-07-08T12:15:04;845.20;1024.00
57030;DHT22;42920;45.306;20.448;2023-07-08T12:17:30;845.10;1049.60
57030;DHT22;42920;45.306;20.448;2023-07-08T12:19:58;845.00;998.40
57030;DHT22;42920;45.306;20.448;2023-07-08T12:22:25;845.20;1024.00
57030;DHT22;42920;45.306;20.448;2023-07-08T12:24:51;845.00;1024.00
57030;DHT22;42920;45.306;20.448;2023-07-08T12:27:17;845.10;1024.00
57030;DHT22;42920;45.306;20.448;2023-07-08T12:29:42;845.20;1049.60
57030;DHT22;42920;45.306;20.448;2023-07-08T12:32:12;845.10;998.40
57030;DHT22;42920;45.306;20.448;2023-07-08T12:34:39;845.20;1049.60
57030;DHT22;42920;45.306;20.448;2023-07-08T12:37:11;845.30;1049.60
57030;DHT22;42920;45.306;20.448;2023-07-08T12:39:37;845.10;1024.00
57030;DHT22;42920;45.306;20.448;2023-07-08T12:42:08;845.20;1024.00
57030;DHT22;42920;45.306;20.448;2023-07-08T12:44:36;845.30;1049.60
57030;DHT22;42920;45.306;20.448;2023-07-08T12:47:06;845.40;1075.20
57030;DHT22;42920;45.306;20.448;2023-07-08T12:49:32;845.40;1024.00
57030;DHT22;42920;45.306;20.448;2023-07-08T12:51:59;845.50;1049.60
57030;DHT22;42920;45.306;20.448;2023-07-08T12:54:27;845.60;1049.60
57030;DHT22;42920;45.306;20.448;2023-07-08T12:56:54;845.60;1075.20
57030;DHT22;42920;45.306;20.448;2023-07-08T12:59:22;845.40;1024.00
57030;DHT22;42920;45.306;20.448;2023-07-08T13:01:50;845.40;998.40
57030;DHT22;42920;45.306;20.448;2023-07-08T13:04:17;845.50;1049.60
57030;DHT22;42920;45.306;20.448;2023-07-08T13:06:44;845.50;1049.60
57030;DHT22;42920;45.306;20.448;2023-07-08T13:09:37;845.60;1024.00
57030;DHT22;42920;45.306;20.448;2023-07-08T13:12:11;845.60;1024.00
57030;DHT22;42920;45.306;20.448;2023-07-08T13:14:38;845.60;1024.00
57030;DHT22;42920;45.306;20.448;2023-07-08T13:17:10;845.50;998.40
57030;DHT22;42920;45.306;20.448;2023-07-08T13:19:36;845.60;1024.00
57030;DHT22;42920;45.306;20.448;2023-07-08T13:22:03;845.40;1024.00
57030;DHT22;42920;45.306;20.448;2023-07-08T13:24:31;845.40;998.40
57030;DHT22;42920;45.306;20.448;2023-07-08T13:26:58;845.40;1024.00
57030;DHT22;42920;45.306;20.448;2023-07-08T13:29:24;845.40;1049.60
57030;DHT22;42920;45.306;20.448;2023-07-08T13:32:02;845.40;1024.00
57030;DHT22;42920;45.306;20.448;2023-07-08T13:34:27;845.40;998.40
57030;DHT22;42920;45.306;20.448;2023-07-08T13:36:54;845.40;998.40
57030;DHT22;42920;45.306;20.448;2023-07-08T13:39:32;845.40;1049.60
57030;DHT22;42920;45.306;20.448;2023-07-08T13:41:59;845.40;972.80
57030;DHT22;42920;45.306;20.448;2023-07-08T13:44:25;845.30;998.40
57030;DHT22;42920;45.306;20.448;2023-07-08T13:46:54;845.40;1024.00
57030;DHT22;42920;45.306;20.448;2023-07-08T13:49:28;845.40;1024.00
57030;DHT22;42920;45.306;20.448;2023-07-08T13:54:48;845.40;1024.00
57030;DHT22;42920;45.306;20.448;2023-07-08T13:57:17;845.40;1024.00
57030;DHT22;42920;45.306;20.448;2023-07-08T13:59:43;845.40;1024.00
57030;DHT22;42920;45.306;20.448;2023-07-08T14:02:30;845.40;1049.60
57030;DHT22;42920;45.306;20.448;2023-07-08T14:04:57;845.40;1024.00
57030;DHT22;42920;45.306;20.448;2023-07-08T14:07:29;845.30;998.40
57030;DHT22;42920;45.306;20.448;2023-07-08T14:09:55;845.40;998.40
57030;DHT22;42920;45.306;20.448;2023-07-08T14:12:22;845.20;998.40
57030;DHT22;42920;45.306;20.448;2023-07-08T14:14:47;845.20;1024.00
57030;DHT22;42920;45.306;20.448;2023-07-08T14:17:19;845.20;1024.00
57030;DHT22;42920;45.306;20.448;2023-07-08T14:19:44;845.20;1024.00
57030;DHT22;42920;45.306;20.448;2023-07-08T14:24:42;845.40;972.80
57030;DHT22;42920;45.306;20.448;2023-07-08T14:27:09;845.30;1024.00
57030;DHT22;42920;45.306;20.448;2023-07-08T14:29:38;845.30;998.40
57030;DHT22;42920;45.306;20.448;2023-07-08T14:32:04;845.20;998.40
57030;DHT22;42920;45.306;20.448;2023-07-08T14:34:35;845.20;1024.00
57030;DHT22;42920;45.306;20.448;2023-07-08T14:37:01;845.20;998.40
57030;DHT22;42920;45.306;20.448;2023-07-08T14:39:26;845.20;998.40
57030;DHT22;42920;45.306;20.448;2023-07-08T14:41:52;845.20;1024.00
57030;DHT22;42920;45.306;20.448;2023-07-08T14:44:19;845.20;1024.00
57030;DHT22;42920;45.306;20.448;2023-07-08T14:46:45;845.20;1024.00
57030;DHT22;42920;45.306;20.448;2023-07-08T14:49:19;845.10;998.40
57030;DHT22;42920;45.306;20.448;2023-07-08T14:51:45;845.20;998.40
57030;DHT22;42920;45.306;20.448;2023-07-08T14:54:12;845.20;1024.00
57030;DHT22;42920;45.306;20.448;2023-07-08T14:56:38;845.20;998.40
57030;DHT22;42920;45.306;20.448;2023-07-08T14:59:04;845.10;1024.00
57030;DHT22;42920;45.306;20.448;2023-07-08T15:01:30;844.90;1049.60
57030;DHT22;42920;45.306;20.448;2023-07-08T15:03:57;845.10;1024.00
57030;DHT22;42920;45.306;20.448;2023-07-08T15:06:23;844.90;1024.00
57030;DHT22;42920;45.306;20.448;2023-07-08T15:08:50;845.10;1024.00
57030;DHT22;42920;45.306;20.448;2023-07-08T15:11:16;844.90;1049.60
57030;DHT22;42920;45.306;20.448;2023-07-08T15:13:44;844.90;1024.00
57030;DHT22;42920;45.306;20.448;2023-07-08T15:16:15;844.90;1049.60
57030;DHT22;42920;45.306;20.448;2023-07-08T15:18:42;820.10;998.40
57030;DHT22;42920;45.306;20.448;2023-07-08T15:21:14;820.10;998.40
57030;DHT22;42920;45.306;20.448;2023-07-08T15:23:40;820.10;998.40
57030;DHT22;42920;45.306;20.448;2023-07-08T15:26:12;820.00;998.40
57030;DHT22;42920;45.306;20.448;2023-07-08T15:28:47;819.80;1024.00
57030;DHT22;42920;45.306;20.448;2023-07-08T15:31:18;819.80;998.40
57030;DHT22;42920;45.306;20.448;2023-07-08T15:33:45;820.00;998.40
57030;DHT22;42920;45.306;20.448;2023-07-08T15:36:12;820.00;998.40
57030;DHT22;42920;45.306;20.448;2023-07-08T15:38:42;820.10;1024.00
57030;DHT22;42920;45.306;20.448;2023-07-08T15:41:25;820.00;1024.00
57030;DHT22;42920;45.306;20.448;2023-07-08T15:43:55;819.80;1024.00
57030;DHT22;42920;45.306;20.448;2023-07-08T15:46:22;819.80;1024.00
57030;DHT22;42920;45.306;20.448;2023-07-08T15:48:48;819.70;1024.00
57030;DHT22;42920;45.306;20.448;2023-07-08T15:51:14;819.80;1024.00
57030;DHT22;42920;45.306;20.448;2023-07-08T15:53:41;819.60;998.40
57030;DHT22;42920;45.306;20.448;2023-07-08T15:56:12;819.60;998.40
57030;DHT22;42920;45.306;20.448;2023-07-08T15:58:40;819.60;998.40
57030;DHT22;42920;45.306;20.448;2023-07-08T16:01:18;819.60;1024.00
57030;DHT22;42920;45.306;20.448;2023-07-08T16:03:45;819.60;998.40